createdAt,value
2023-04-21T00:00:34.211Z,9.00
2023-04-21T00:03:03.928Z,9.00
2023-04-21T00:05:31.201Z,9.00
2023-04-21T00:07:58.169Z,9.00
2023-04-21T00:10:25.110Z,9.00
2023-04-21T00:12:51.983Z,9.00
2023-04-21T00:15:20.983Z,9.00
2023-04-21T00:17:50.543Z,9.00
2023-04-21T00:20:23.299Z,8.90
2023-04-21T00:22:50.886Z,8.90
2023-04-21T00:25:17.835Z,8.90
2023-04-21T00:27:44.708Z,8.90
2023-04-21T00:30:12.081Z,8.90
2023-04-21T00:32:38.955Z,8.90
2023-04-21T00:35:08.845Z,8.80
2023-04-21T00:37:35.836Z,8.80
2023-04-21T00:40:04.234Z,8.80
2023-04-21T00:42:31.623Z,8.80
2023-04-21T00:44:58.517Z,8.70
2023-04-21T00:47:27.914Z,8.70
2023-04-21T00:49:55.007Z,8.70
2023-04-21T00:52:24.622Z,8.70
2023-04-21T00:54:51.513Z,8.60
2023-04-21T00:57:19.220Z,8.60
2023-04-21T00:59:46.238Z,8.60
2023-04-21T01:02:18.757Z,8.60
2023-04-21T01:04:45.878Z,8.60
2023-04-21T01:07:13.024Z,8.60
2023-04-21T01:09:40.330Z,8.60
2023-04-21T01:12:10.608Z,8.60
2023-04-21T01:14:41.408Z,8.60
2023-04-21T01:17:11.475Z,8.60
2023-04-21T01:19:42.803Z,8.60
2023-04-21T01:22:11.775Z,8.60
2023-04-21T01:24:47.272Z,8.60
2023-04-21T01:27:21.195Z,8.60
2023-04-21T01:29:54.198Z,8.60
2023-04-21T01:32:26.411Z,8.60
2023-04-21T01:34:54.798Z,8.60
2023-04-21T01:37:27.868Z,8.60
2023-04-21T01:39:58.048Z,8.60
2023-04-21T01:42:30.123Z,8.60
2023-04-21T01:45:00.827Z,8.60
2023-04-21T01:47:27.859Z,8.60
2023-04-21T01:49:54.752Z,8.60
2023-04-21T01:52:21.951Z,8.50
2023-04-21T01:54:49.272Z,8.50
2023-04-21T01:57:17.286Z,8.50
2023-04-21T01:59:44.659Z,8.60
2023-04-21T02:02:11.731Z,8.50
2023-04-21T02:04:38.774Z,8.50
2023-04-21T02:07:05.867Z,8.50
2023-04-21T02:09:32.905Z,8.50
2023-04-21T02:12:00.461Z,8.50
2023-04-21T02:14:27.440Z,8.50
2023-04-21T02:16:56.115Z,8.40
2023-04-21T02:19:23.537Z,8.40
2023-04-21T02:21:50.486Z,8.40
2023-04-21T02:24:17.525Z,8.30
2023-04-21T02:26:44.401Z,8.30
2023-04-21T02:29:11.299Z,8.30
2023-04-21T02:31:49.675Z,8.30
2023-04-21T02:34:27.020Z,8.30
2023-04-21T02:36:59.772Z,8.30
2023-04-21T02:39:27.132Z,8.20
2023-04-21T02:41:53.992Z,8.20
2023-04-21T02:44:25.416Z,8.20
2023-04-21T02:46:52.259Z,8.20
2023-04-21T02:49:21.620Z,8.20
2023-04-21T02:51:50.774Z,8.20
2023-04-21T02:54:17.651Z,8.20
2023-04-21T02:56:44.456Z,8.20
2023-04-21T02:59:16.725Z,8.20
2023-04-21T03:01:49.262Z,8.20
2023-04-21T03:04:16.691Z,8.20
2023-04-21T03:06:43.653Z,8.10
2023-04-21T03:09:10.562Z,8.10
2023-04-21T03:11:42.032Z,8.10
2023-04-21T03:14:08.896Z,8.10
2023-04-21T03:16:35.857Z,8.00
2023-04-21T03:19:02.786Z,8.00
2023-04-21T03:21:29.695Z,8.00
2023-04-21T03:23:58.634Z,7.90
2023-04-21T03:26:27.651Z,7.90
2023-04-21T03:28:56.711Z,7.90
2023-04-21T03:31:23.595Z,7.90
2023-04-21T03:33:53.122Z,7.90
2023-04-21T03:36:25.025Z,7.90
2023-04-21T03:38:51.890Z,7.80
2023-04-21T03:41:19.203Z,7.80
2023-04-21T03:43:46.141Z,7.80
2023-04-21T03:46:21.726Z,7.80
2023-04-21T03:48:49.081Z,7.80
2023-04-21T03:51:18.451Z,7.80
2023-04-21T03:53:45.331Z,7.80
2023-04-21T03:56:12.194Z,7.80
2023-04-21T03:58:39.118Z,7.80
2023-04-21T04:01:08.499Z,7.80
2023-04-21T04:03:35.478Z,7.70
2023-04-21T04:06:04.195Z,7.70
2023-04-21T04:08:31.359Z,7.70
2023-04-21T04:10:58.298Z,7.60
2023-04-21T04:13:26.577Z,7.60
2023-04-21T04:15:59.194Z,7.60
2023-04-21T04:18:26.270Z,7.60
2023-04-21T04:20:53.133Z,7.50
2023-04-21T04:23:22.437Z,7.50
2023-04-21T04:25:49.439Z,7.50
2023-04-21T04:28:18.776Z,7.60
2023-04-21T04:30:45.675Z,7.50
2023-04-21T04:33:12.518Z,7.50
2023-04-21T04:35:39.429Z,7.50
2023-04-21T04:38:07.603Z,7.50
2023-04-21T04:40:34.583Z,7.50
2023-04-21T04:43:02.608Z,7.50
2023-04-21T04:45:33.038Z,7.50
2023-04-21T04:48:00.332Z,7.50
2023-04-21T04:50:27.396Z,7.40
2023-04-21T04:52:57.271Z,7.40
2023-04-21T04:55:25.510Z,7.40
2023-04-21T04:57:52.395Z,7.40
2023-04-21T05:00:19.926Z,7.40
2023-04-21T05:02:51.671Z,7.40
2023-04-21T05:05:18.678Z,7.40
2023-04-21T05:07:47.993Z,7.40
2023-04-21T05:10:17.167Z,7.40
2023-04-21T05:12:44.136Z,7.30
2023-04-21T05:15:11.469Z,7.40
2023-04-21T05:17:38.451Z,7.30
2023-04-21T05:20:07.602Z,7.30
2023-04-21T05:22:41.079Z,7.30
2023-04-21T05:25:10.940Z,7.30
2023-04-21T05:27:37.790Z,7.30
2023-04-21T05:30:08.202Z,7.30
2023-04-21T05:32:35.397Z,7.20
2023-04-21T05:35:05.373Z,7.30
2023-04-21T05:37:32.406Z,7.30
2023-04-21T05:40:04.647Z,7.30
2023-04-21T05:42:31.566Z,7.30
2023-04-21T05:45:00.722Z,7.30
2023-04-21T05:47:29.950Z,7.30
2023-04-21T05:49:56.888Z,7.40
2023-04-21T05:52:23.803Z,7.40
2023-04-21T05:54:50.903Z,7.50
2023-04-21T05:57:22.293Z,7.50
2023-04-21T05:59:51.701Z,7.50
2023-04-21T06:02:21.113Z,7.50
2023-04-21T06:04:50.549Z,7.50
2023-04-21T06:07:18.872Z,7.50
2023-04-21T06:09:51.225Z,7.50
2023-04-21T06:12:20.773Z,7.50
2023-04-21T06:14:47.709Z,7.60
2023-04-21T06:17:18.067Z,7.60
2023-04-21T06:19:52.944Z,7.60
2023-04-21T06:22:20.931Z,7.60
2023-04-21T06:24:48.004Z,7.70
2023-04-21T06:27:17.740Z,7.70
2023-04-21T06:29:44.833Z,7.80
2023-04-21T06:32:12.930Z,7.80
2023-04-21T06:34:39.962Z,7.90
2023-04-21T06:37:06.889Z,7.90
2023-04-21T06:39:33.745Z,8.00
2023-04-21T06:42:00.814Z,8.10
2023-04-21T06:44:28.231Z,8.10
2023-04-21T06:46:57.409Z,8.20
2023-04-21T06:49:26.580Z,8.30
2023-04-21T06:51:53.537Z,8.40
2023-04-21T06:54:20.727Z,8.60
2023-04-21T06:56:51.295Z,8.80
2023-04-21T06:59:18.404Z,9.00
2023-04-21T07:01:52.149Z,9.20
2023-04-21T07:04:21.828Z,9.60
2023-04-21T07:06:49.308Z,10.00
2023-04-21T07:09:16.174Z,10.50
2023-04-21T07:11:43.015Z,11.00
2023-04-21T07:14:10.329Z,11.60
2023-04-21T07:16:39.730Z,12.20
2023-04-21T07:19:08.741Z,12.90
2023-04-21T07:21:36.275Z,13.60
2023-04-21T07:24:03.962Z,14.50
2023-04-21T07:26:34.231Z,15.40
2023-04-21T07:29:01.222Z,16.40
2023-04-21T07:31:28.204Z,17.40
2023-04-21T07:33:55.192Z,18.30
2023-04-21T07:36:26.144Z,19.20
2023-04-21T07:38:52.976Z,20.10
2023-04-21T07:41:22.697Z,20.90
2023-04-21T07:43:53.716Z,21.60
2023-04-21T07:46:29.920Z,22.30
2023-04-21T07:49:03.597Z,22.90
2023-04-21T07:51:31.989Z,23.40
2023-04-21T07:53:58.890Z,23.90
2023-04-21T07:56:26.101Z,24.10
2023-04-21T07:58:58.269Z,24.10
2023-04-21T08:01:25.266Z,24.10
2023-04-21T08:03:54.486Z,23.90
2023-04-21T08:06:21.527Z,23.80
2023-04-21T08:08:51.072Z,23.60
2023-04-21T08:11:20.579Z,23.40
2023-04-21T08:13:47.522Z,23.20
2023-04-21T08:16:14.488Z,23.00
2023-04-21T08:18:41.420Z,22.80
2023-04-21T08:21:11.722Z,22.70
2023-04-21T08:23:38.635Z,22.60
2023-04-21T08:26:07.833Z,22.60
2023-04-21T08:28:34.898Z,22.50
2023-04-21T08:31:02.346Z,22.50
2023-04-21T08:33:31.574Z,22.50
2023-04-21T08:36:05.497Z,22.40
2023-04-21T08:38:37.027Z,22.40
2023-04-21T08:41:05.158Z,22.30
2023-04-21T08:43:33.153Z,22.20
2023-04-21T08:46:00.953Z,22.20
2023-04-21T08:48:29.834Z,22.10
2023-04-21T08:50:59.630Z,22.00
2023-04-21T08:53:26.564Z,21.90
2023-04-21T08:56:10.069Z,21.80
2023-04-21T08:58:41.647Z,21.70
2023-04-21T09:01:12.201Z,21.50
2023-04-21T09:03:44.058Z,21.40
2023-04-21T09:06:13.829Z,21.20
2023-04-21T09:08:55.888Z,21.10
2023-04-21T09:11:23.195Z,20.90
2023-04-21T09:13:54.816Z,20.80
2023-04-21T09:16:22.665Z,20.60
2023-04-21T09:18:51.442Z,20.50
2023-04-21T09:21:20.481Z,20.40
2023-04-21T09:23:48.300Z,20.30
2023-04-21T09:26:16.954Z,20.10
2023-04-21T09:28:51.779Z,19.90
2023-04-21T09:31:24.936Z,19.90
2023-04-21T09:34:01.749Z,19.80
2023-04-21T09:36:32.061Z,19.70
2023-04-21T09:41:37.182Z,19.50
2023-04-21T09:44:06.595Z,19.40
2023-04-21T09:46:37.912Z,19.30
2023-04-21T09:49:06.580Z,19.20
2023-04-21T09:52:05.894Z,19.10
2023-04-21T09:54:32.132Z,19.00
2023-04-21T09:57:02.404Z,19.00
2023-04-21T09:59:42.926Z,18.90
2023-04-21T10:02:11.543Z,18.90
2023-04-21T10:04:44.462Z,18.90
2023-04-21T10:07:13.955Z,18.80
2023-04-21T10:09:57.261Z,18.80
2023-04-21T10:12:28.062Z,18.80
2023-04-21T10:14:56.332Z,18.80
2023-04-21T10:17:26.132Z,18.80
2023-04-21T10:19:59.168Z,18.70
2023-04-21T10:22:36.208Z,18.60
2023-04-21T10:25:09.483Z,18.60
2023-04-21T10:27:41.107Z,18.60
2023-04-21T10:30:23.246Z,18.60
2023-04-21T10:33:06.443Z,18.60
2023-04-21T10:36:04.751Z,18.60
2023-04-21T10:38:41.691Z,18.70
2023-04-21T10:41:32.975Z,18.80
2023-04-21T10:44:01.046Z,18.80
2023-04-21T10:46:38.133Z,18.80
2023-04-21T10:49:30.551Z,18.90
2023-04-21T10:52:02.958Z,18.90
2023-04-21T10:55:08.420Z,18.90
2023-04-21T10:57:36.861Z,18.90
2023-04-21T11:00:11.541Z,18.90
2023-04-21T11:02:40.553Z,19.00
2023-04-21T11:05:11.687Z,19.00
2023-04-21T11:07:38.682Z,19.00
2023-04-21T11:10:08.530Z,19.00
2023-04-21T11:12:41.693Z,19.00
2023-04-21T11:15:12.669Z,19.00
2023-04-21T11:17:39.997Z,19.00
2023-04-21T11:20:08.534Z,19.00
2023-04-21T11:22:39.824Z,19.10
2023-04-21T11:25:16.923Z,19.10
2023-04-21T11:27:57.466Z,19.00
2023-04-21T11:30:34.564Z,19.10
2023-04-21T11:33:04.274Z,19.10
2023-04-21T11:35:35.376Z,19.10
2023-04-21T11:38:06.027Z,19.20
2023-04-21T11:40:48.428Z,19.20
2023-04-21T11:43:15.540Z,19.30
2023-04-21T11:45:42.499Z,19.30
2023-04-21T11:48:17.331Z,19.40
2023-04-21T11:50:50.892Z,19.50
2023-04-21T11:53:19.243Z,19.50
2023-04-21T11:55:46.611Z,19.60
2023-04-21T11:58:16.164Z,19.60
2023-04-21T12:00:46.562Z,19.60
2023-04-21T12:03:13.958Z,19.60
2023-04-21T12:05:43.527Z,19.60
2023-04-21T12:08:16.569Z,19.60
2023-04-21T12:10:47.314Z,19.60
2023-04-21T12:13:22.259Z,19.60
2023-04-21T12:15:49.582Z,19.60
2023-04-21T12:18:18.785Z,19.60
2023-04-21T12:20:53.225Z,19.70
2023-04-21T12:23:22.586Z,19.70
2023-04-21T12:25:50.064Z,19.80
2023-04-21T12:28:18.136Z,19.80
2023-04-21T12:30:45.221Z,19.90
2023-04-21T12:33:13.035Z,19.90
2023-04-21T12:35:43.034Z,19.90
2023-04-21T12:38:10.024Z,19.90
2023-04-21T12:40:36.827Z,19.90
2023-04-21T12:43:03.723Z,19.90
2023-04-21T12:45:32.005Z,20.00
2023-04-21T12:47:59.662Z,20.00
2023-04-21T12:50:26.643Z,20.00
2023-04-21T12:52:55.183Z,20.00
2023-04-21T12:55:23.290Z,19.90
2023-04-21T12:57:53.386Z,19.90
2023-04-21T13:00:20.634Z,19.90
2023-04-21T13:02:47.714Z,19.90
2023-04-21T13:05:16.987Z,19.90
2023-04-21T13:07:43.910Z,19.90
2023-04-21T13:10:14.405Z,19.90
2023-04-21T13:12:42.611Z,19.90
2023-04-21T13:15:10.719Z,19.90
2023-04-21T13:17:37.633Z,19.90
2023-04-21T13:20:05.162Z,19.80
2023-04-21T13:22:32.154Z,19.80
2023-04-21T13:25:04.443Z,19.80
2023-04-21T13:27:33.382Z,19.80
2023-04-21T13:30:03.069Z,19.70
2023-04-21T13:32:30.025Z,19.70
2023-04-21T13:34:58.146Z,19.70
2023-04-21T13:37:25.985Z,19.70
2023-04-21T13:39:52.939Z,19.70
2023-04-21T13:42:19.821Z,19.70
2023-04-21T13:44:46.800Z,19.70
2023-04-21T13:47:13.832Z,19.70
2023-04-21T13:49:40.776Z,19.60
2023-04-21T13:52:07.645Z,19.60
2023-04-21T13:54:34.791Z,19.60
2023-04-21T13:57:02.160Z,19.50
2023-04-21T13:59:34.573Z,19.50
2023-04-21T14:02:01.968Z,19.50
2023-04-21T14:04:33.848Z,19.40
2023-04-21T14:07:04.474Z,19.40
2023-04-21T14:09:34.625Z,19.40
2023-04-21T14:12:04.146Z,19.30
2023-04-21T14:14:38.623Z,19.30
2023-04-21T14:17:07.323Z,19.30
2023-04-21T14:19:37.777Z,19.30
2023-04-21T14:22:04.719Z,19.20
2023-04-21T14:24:33.954Z,19.20
2023-04-21T14:27:01.179Z,19.20
2023-04-21T14:29:30.333Z,19.10
2023-04-21T14:31:59.704Z,19.10
2023-04-21T14:34:29.035Z,19.10
2023-04-21T14:36:59.085Z,19.10
2023-04-21T14:39:28.251Z,19.00
2023-04-21T14:41:55.215Z,19.00
2023-04-21T14:44:24.653Z,19.00
2023-04-21T14:47:05.652Z,19.00
2023-04-21T14:49:40.495Z,19.00
2023-04-21T14:52:07.634Z,19.00
2023-04-21T14:54:34.680Z,19.00
2023-04-21T14:57:17.985Z,19.00
2023-04-21T14:59:51.602Z,18.90
2023-04-21T15:02:20.127Z,18.90
2023-04-21T15:04:47.471Z,18.80
2023-04-21T15:07:17.194Z,18.70
2023-04-21T15:09:47.488Z,18.70
2023-04-21T15:12:14.871Z,18.60
2023-04-21T15:14:41.888Z,18.60
2023-04-21T15:17:08.781Z,18.60
2023-04-21T15:19:37.906Z,18.60
2023-04-21T15:22:05.095Z,18.50
2023-04-21T15:24:32.082Z,18.60
2023-04-21T15:27:02.486Z,18.50
2023-04-21T15:29:32.014Z,18.50
2023-04-21T15:32:01.345Z,18.50
2023-04-21T15:34:32.856Z,18.50
2023-04-21T15:37:01.941Z,18.50
2023-04-21T15:39:28.818Z,18.50
2023-04-21T15:41:59.324Z,18.50
2023-04-21T15:44:31.529Z,18.50
2023-04-21T15:46:58.783Z,18.50
2023-04-21T15:49:28.176Z,18.50
2023-04-21T15:51:59.318Z,18.50
2023-04-21T15:54:26.474Z,18.50
2023-04-21T15:56:53.390Z,18.50
2023-04-21T15:59:26.046Z,18.50
2023-04-21T16:01:57.201Z,18.50
2023-04-21T16:04:24.620Z,18.50
2023-04-21T16:06:53.784Z,18.40
2023-04-21T16:09:22.968Z,18.40
2023-04-21T16:11:55.156Z,18.40
2023-04-21T16:14:22.082Z,18.40
2023-04-21T16:16:51.244Z,18.40
2023-04-21T16:19:20.500Z,18.40
2023-04-21T16:21:47.399Z,18.40
2023-04-21T16:24:14.420Z,18.40
2023-04-21T16:26:41.649Z,18.40
2023-04-21T16:29:08.662Z,18.40
2023-04-21T16:31:37.902Z,18.40
2023-04-21T16:34:04.844Z,18.40
2023-04-21T16:36:32.501Z,18.40
2023-04-21T16:38:59.972Z,18.30
2023-04-21T16:41:26.946Z,18.30
2023-04-21T16:43:53.835Z,18.30
2023-04-21T16:46:25.048Z,18.30
2023-04-21T16:48:54.927Z,18.30
2023-04-21T16:51:21.877Z,18.20
2023-04-21T16:53:48.824Z,18.20
2023-04-21T16:56:15.826Z,18.20
2023-04-21T16:58:42.749Z,18.20
2023-04-21T17:01:09.609Z,18.10
2023-04-21T17:03:37.023Z,18.10
2023-04-21T17:06:10.930Z,18.10
2023-04-21T17:08:37.957Z,18.10
2023-04-21T17:11:05.058Z,18.00
2023-04-21T17:13:38.113Z,18.00
2023-04-21T17:16:07.514Z,17.90
2023-04-21T17:18:37.644Z,17.90
2023-04-21T17:21:06.233Z,17.90
2023-04-21T17:23:36.251Z,17.80
2023-04-21T17:26:06.511Z,17.80
2023-04-21T17:28:35.880Z,17.80
2023-04-21T17:31:14.483Z,17.70
2023-04-21T17:33:45.912Z,17.60
2023-04-21T17:36:16.994Z,17.60
2023-04-21T17:38:44.198Z,17.60
2023-04-21T17:41:11.494Z,17.50
2023-04-21T17:43:41.143Z,17.50
2023-04-21T17:46:08.240Z,17.50
2023-04-21T17:48:35.333Z,17.40
2023-04-21T17:51:02.390Z,17.40
2023-04-21T17:53:32.109Z,17.40
2023-04-21T17:55:59.738Z,17.40
2023-04-21T17:58:27.201Z,17.30
2023-04-21T18:00:54.506Z,17.30
2023-04-21T18:03:23.941Z,17.30
2023-04-21T18:05:52.527Z,17.20
2023-04-21T18:08:22.746Z,17.20
2023-04-21T18:10:49.757Z,17.10
2023-04-21T18:13:16.791Z,17.10
2023-04-21T18:15:43.700Z,17.00
2023-04-21T18:18:15.792Z,16.90
2023-04-21T18:20:43.009Z,16.90
2023-04-21T18:23:12.261Z,16.80
2023-04-21T18:25:42.574Z,16.70
2023-04-21T18:28:11.542Z,16.70
2023-04-21T18:30:43.338Z,16.60
2023-04-21T18:33:11.551Z,16.60
2023-04-21T18:35:38.986Z,16.50
2023-04-21T18:38:10.516Z,16.50
2023-04-21T18:40:38.135Z,16.50
2023-04-21T18:43:05.430Z,16.40
2023-04-21T18:45:32.861Z,16.40
2023-04-21T18:47:59.967Z,16.30
2023-04-21T18:50:27.623Z,16.30
2023-04-21T18:52:55.345Z,16.30
2023-04-21T18:55:22.537Z,16.20
2023-04-21T18:57:49.504Z,16.20
2023-04-21T19:00:19.114Z,16.10
2023-04-21T19:02:48.703Z,16.10
2023-04-21T19:05:16.337Z,16.00
2023-04-21T19:07:43.658Z,16.00
2023-04-21T19:10:12.987Z,16.00
2023-04-21T19:12:42.010Z,16.00
2023-04-21T19:15:09.697Z,16.00
2023-04-21T19:17:36.896Z,15.90
2023-04-21T19:20:04.159Z,15.90
2023-04-21T19:22:32.094Z,15.90
2023-04-21T19:24:59.157Z,15.90
2023-04-21T19:27:26.081Z,15.90
2023-04-21T19:29:53.084Z,15.80
2023-04-21T19:32:20.119Z,15.80
2023-04-21T19:34:47.316Z,15.80
2023-04-21T19:37:19.299Z,15.70
2023-04-21T19:39:48.814Z,15.70
2023-04-21T19:42:15.759Z,15.60
2023-04-21T19:44:42.602Z,15.60
2023-04-21T19:47:09.757Z,15.60
2023-04-21T19:49:36.691Z,15.50
2023-04-21T19:52:08.530Z,15.50
2023-04-21T19:54:35.677Z,15.40
2023-04-21T19:57:02.825Z,15.40
2023-04-21T19:59:29.804Z,15.40
2023-04-21T20:01:59.387Z,15.30
2023-04-21T20:04:31.234Z,15.30
2023-04-21T20:06:58.305Z,15.30
2023-04-21T20:09:25.289Z,15.20
2023-04-21T20:11:52.190Z,15.20
2023-04-21T20:14:20.326Z,15.20
2023-04-21T20:16:48.416Z,15.10
2023-04-21T20:19:18.406Z,15.10
2023-04-21T20:21:45.635Z,15.10
2023-04-21T20:24:14.756Z,15.00
2023-04-21T20:26:41.788Z,15.00
2023-04-21T20:29:09.219Z,15.00
2023-04-21T20:31:39.319Z,14.90
2023-04-21T20:34:06.256Z,14.90
2023-04-21T20:36:33.455Z,14.90
2023-04-21T20:39:01.085Z,14.90
2023-04-21T20:41:28.330Z,14.80
2023-04-21T20:43:56.356Z,14.80
2023-04-21T20:46:23.747Z,14.80
2023-04-21T20:48:53.287Z,14.70
2023-04-21T20:51:22.783Z,14.70
2023-04-21T20:53:50.861Z,14.70
2023-04-21T20:56:17.698Z,14.60
2023-04-21T20:58:44.766Z,14.60
2023-04-21T21:01:13.764Z,14.60
2023-04-21T21:03:40.818Z,14.50
2023-04-21T21:06:10.577Z,14.50
2023-04-21T21:08:37.393Z,14.50
2023-04-21T21:11:06.810Z,14.50
2023-04-21T21:13:36.230Z,14.40
2023-04-21T21:16:03.210Z,14.40
2023-04-21T21:18:34.460Z,14.40
2023-04-21T21:21:06.624Z,14.40
2023-04-21T21:23:33.489Z,14.30
2023-04-21T21:26:01.389Z,14.30
2023-04-21T21:28:30.163Z,14.30
2023-04-21T21:30:57.228Z,14.20
2023-04-21T21:33:24.147Z,14.20
2023-04-21T21:35:51.114Z,14.20
2023-04-21T21:38:20.628Z,14.20
2023-04-21T21:40:47.568Z,14.20
2023-04-21T21:43:17.481Z,14.10
2023-04-21T21:45:44.663Z,14.10
2023-04-21T21:48:11.663Z,14.10
2023-04-21T21:50:38.591Z,14.10
2023-04-21T21:53:05.635Z,14.10
2023-04-21T21:55:32.647Z,14.10
2023-04-21T21:58:03.918Z,14.10
2023-04-21T22:00:31.112Z,14.00
2023-04-21T22:02:59.614Z,14.00
2023-04-21T22:05:26.592Z,14.00
2023-04-21T22:07:56.954Z,14.00
2023-04-21T22:10:24.780Z,13.90
2023-04-21T22:12:54.184Z,13.90
2023-04-21T22:15:23.723Z,13.90
2023-04-21T22:17:50.769Z,13.80
2023-04-21T22:20:17.939Z,13.80
2023-04-21T22:22:44.892Z,13.80
2023-04-21T22:25:14.341Z,13.70
2023-04-21T22:27:41.291Z,13.70
2023-04-21T22:30:08.864Z,13.70
2023-04-21T22:32:38.314Z,13.70
2023-04-21T22:35:07.865Z,13.60
2023-04-21T22:37:34.760Z,13.60
2023-04-21T22:40:04.499Z,13.60
2023-04-21T22:42:33.914Z,13.60
2023-04-21T22:45:01.661Z,13.50
2023-04-21T22:47:31.069Z,13.50
2023-04-21T22:50:00.435Z,13.50
2023-04-21T22:52:29.606Z,13.50
2023-04-21T22:54:58.865Z,13.50
2023-04-21T22:57:28.193Z,13.50
2023-04-21T22:59:55.272Z,13.50
2023-04-21T23:02:22.295Z,13.40
2023-04-21T23:04:49.324Z,13.40
2023-04-21T23:07:16.212Z,13.40
2023-04-21T23:09:47.659Z,13.40
2023-04-21T23:12:16.783Z,13.40
2023-04-21T23:14:43.947Z,13.30
2023-04-21T23:17:13.036Z,13.30
2023-04-21T23:19:40.057Z,13.30
2023-04-21T23:22:07.285Z,13.30
2023-04-21T23:24:38.953Z,13.30
2023-04-21T23:27:05.753Z,13.30
2023-04-21T23:29:32.690Z,13.20
2023-04-21T23:31:59.639Z,13.20
2023-04-21T23:34:26.584Z,13.20
2023-04-21T23:36:53.432Z,13.10
2023-04-21T23:39:22.667Z,13.10
2023-04-21T23:41:49.752Z,13.10
2023-04-21T23:44:16.683Z,13.10
2023-04-21T23:46:43.574Z,13.10
2023-04-21T23:49:10.854Z,13.10
2023-04-21T23:51:37.868Z,13.00
2023-04-21T23:54:04.893Z,13.00
2023-04-21T23:56:31.835Z,13.00
2023-04-21T23:58:58.905Z,13.00
